Marysville, Kansas
Current Conditions -  °F | °C
As of 1:15 AM on Thursday 18 Dec 2014 (Local Time) from KMYZ Reporting Station
Light Snow Light Snow  
Wind Chill: 23°   Ceiling: 1600
Heat Index: 28°   Visibility: 3mi
Dew Point: 27°   Wind: 5mph
Humidity: 93%   Direction: 130°SE
Pressure: 30.21"   Gusts: NA
Location:  39.84°N, 96.65°W
Report Text: KMYZ 180715Z AUTO 13004KT 3SM -SN SCT010 BKN016 OVC027 M02/M03 A3021 RMK AO2
Loading
Personal Weather Stations






























Interactive Weather Map New forecast layout! Learn more

10-Day Weather Forecast

Advertisements
Track Severe Weather on mobile